Time;durP1;ratioP1;P1;durP2;ratioP2;P2;SDS_P1;SDS_P2;PMS_P1;PMS_P2;Temp;Humidity;BMP_temperature;BMP_pressure;BME280_temperature;BME280_humidity;BME280_pressure;Samples;Min_cycle;Max_cycle;Signal;HPM_P1;HPM_P2
2021/04/08 00:02:06;;;;;;;7.70;4.68;;;;;;;;;;5020854;28;20487;-83
2021/04/08 00:04:51;;;;;;;10.43;5.10;;;;;;;;;;5022705;28;20043;-83
2021/04/08 00:07:37;;;;;;;9.13;5.38;;;;;;;;;;5024866;28;20380;-83
2021/04/08 00:10:22;;;;;;;8.77;4.57;;;;;;;;;;5041859;28;20075;-84
2021/04/08 00:13:07;;;;;;;9.27;4.80;;;;;;;;;;5021658;28;20511;-83
2021/04/08 00:15:52;;;;;;;9.23;4.30;;;;;;;;;;5025225;28;20523;-83
2021/04/08 00:18:37;;;;;;;10.27;4.93;;;;;;;;;;5025008;28;20104;-84
2021/04/08 00:21:23;;;;;;;10.20;5.00;;;;;;;;;;5029458;28;20071;-83
2021/04/08 00:24:08;;;;;;;11.18;4.53;;;;;;;;;;5023016;28;20025;-83
2021/04/08 00:26:53;;;;;;;10.48;5.28;;;;;;;;;;5020753;28;20100;-83
2021/04/08 00:29:38;;;;;;;12.48;5.28;;;;;;;;;;5029736;28;20033;-85
2021/04/08 00:32:24;;;;;;;8.32;4.70;;;;;;;;;;5022950;28;20095;-83
2021/04/08 00:35:09;;;;;;;9.57;5.05;;;;;;;;;;5028026;28;20053;-84
2021/04/08 00:37:55;;;;;;;9.35;4.35;;;;;;;;;;5021571;28;20032;-84
2021/04/08 00:40:44;;;;;;;8.57;4.00;;;;;;;;;;5024601;28;20033;-84
2021/04/08 00:43:30;;;;;;;6.73;4.30;;;;;;;;;;5024565;28;20034;-83
2021/04/08 00:46:15;;;;;;;12.43;5.10;;;;;;;;;;5026233;28;20516;-85
2021/04/08 00:49:00;;;;;;;10.35;5.10;;;;;;;;;;5022017;28;20068;-83
2021/04/08 00:51:46;;;;;;;9.52;5.22;;;;;;;;;;5025683;28;20033;-84
2021/04/08 00:54:31;;;;;;;9.68;5.45;;;;;;;;;;5025264;28;20662;-84
2021/04/08 00:57:19;;;;;;;9.07;5.72;;;;;;;;;;5025149;28;20033;-84
2021/04/08 01:00:06;;;;;;;10.55;5.55;;;;;;;;;;5022826;28;20032;-84
2021/04/08 01:02:52;;;;;;;8.88;5.50;;;;;;;;;;5028058;28;20567;-84
2021/04/08 01:05:37;;;;;;;9.30;4.55;;;;;;;;;;5026204;28;20383;-84
2021/04/08 01:08:23;;;;;;;8.73;5.43;;;;;;;;;;5028617;28;20030;-84
2021/04/08 01:11:08;;;;;;;13.82;5.82;;;;;;;;;;5025321;28;20113;-84
2021/04/08 01:13:53;;;;;;;13.40;6.05;;;;;;;;;;5025200;28;20036;-84
2021/04/08 01:17:05;;;;;;;9.63;5.55;;;;;;;;;;5004769;28;20030;-84
2021/04/08 01:20:09;;;;;;;12.60;6.45;;;;;;;;;;5022368;28;20018;-84
2021/04/08 01:22:57;;;;;;;10.70;5.35;;;;;;;;;;5027201;28;20478;-83
2021/04/08 01:26:01;;;;;;;10.60;5.93;;;;;;;;;;5023451;28;20033;-83
2021/04/08 01:28:48;;;;;;;11.20;6.32;;;;;;;;;;5015954;28;20515;-85
2021/04/08 01:31:34;;;;;;;11.40;6.60;;;;;;;;;;5025635;28;20033;-84
2021/04/08 01:34:21;;;;;;;12.30;6.47;;;;;;;;;;5028038;28;20376;-85
2021/04/08 01:37:08;;;;;;;10.25;5.75;;;;;;;;;;5026734;28;20037;-85
2021/04/08 01:39:54;;;;;;;10.10;5.53;;;;;;;;;;5021369;28;20419;-83
2021/04/08 01:42:39;;;;;;;11.25;5.20;;;;;;;;;;5025384;28;20056;-83
2021/04/08 01:45:26;;;;;;;11.52;6.30;;;;;;;;;;5019408;28;20040;-83
2021/04/08 01:48:12;;;;;;;14.25;8.85;;;;;;;;;;5016858;28;20018;-83
2021/04/08 01:50:58;;;;;;;14.48;7.50;;;;;;;;;;5020399;28;20056;-84
2021/04/08 01:53:49;;;;;;;14.27;8.35;;;;;;;;;;5025455;28;20052;-83
2021/04/08 01:56:39;;;;;;;10.55;6.38;;;;;;;;;;5008461;28;20037;-84
2021/04/08 01:59:24;;;;;;;15.23;6.60;;;;;;;;;;5007037;28;20049;-84
2021/04/08 02:02:12;;;;;;;13.18;6.90;;;;;;;;;;5022159;28;20028;-84
2021/04/08 02:04:57;;;;;;;9.95;7.18;;;;;;;;;;5026100;28;20017;-84
2021/04/08 02:07:44;;;;;;;14.88;7.47;;;;;;;;;;5009514;28;20021;-84
2021/04/08 02:10:30;;;;;;;12.48;6.93;;;;;;;;;;5012131;28;20036;-84
2021/04/08 02:13:15;;;;;;;13.80;7.03;;;;;;;;;;5022978;28;20033;-84
2021/04/08 02:16:01;;;;;;;9.77;5.75;;;;;;;;;;5022976;28;20045;-83
2021/04/08 02:18:50;;;;;;;11.55;6.07;;;;;;;;;;5025903;28;20021;-85
2021/04/08 02:21:35;;;;;;;8.93;4.45;;;;;;;;;;5022884;28;20064;-85
2021/04/08 02:24:21;;;;;;;11.25;5.72;;;;;;;;;;5021692;28;20037;-83
2021/04/08 02:27:07;;;;;;;8.82;4.28;;;;;;;;;;5023516;28;20484;-83
2021/04/08 02:29:53;;;;;;;10.02;4.07;;;;;;;;;;5021520;28;20207;-83
2021/04/08 02:32:38;;;;;;;7.88;4.07;;;;;;;;;;5020790;28;20061;-84
2021/04/08 02:35:24;;;;;;;9.55;4.03;;;;;;;;;;5027393;28;20032;-84
2021/04/08 02:38:09;;;;;;;7.07;3.72;;;;;;;;;;5022356;28;20438;-83
2021/04/08 02:40:54;;;;;;;11.27;4.85;;;;;;;;;;5020546;28;20025;-84
2021/04/08 02:43:40;;;;;;;9.38;5.28;;;;;;;;;;5024129;28;20025;-84
2021/04/08 02:46:25;;;;;;;7.53;4.47;;;;;;;;;;5020688;28;20119;-84
2021/04/08 02:49:10;;;;;;;11.32;4.50;;;;;;;;;;5024110;28;20013;-84
2021/04/08 02:51:58;;;;;;;8.65;4.63;;;;;;;;;;5026240;28;20490;-84
2021/04/08 02:54:47;;;;;;;10.30;4.97;;;;;;;;;;5022632;28;20033;-84
2021/04/08 02:57:37;;;;;;;10.15;5.32;;;;;;;;;;5012267;28;20116;-83
2021/04/08 03:00:25;;;;;;;11.67;5.93;;;;;;;;;;5008077;28;20582;-83
2021/04/08 03:03:11;;;;;;;10.35;4.75;;;;;;;;;;5007105;28;20264;-84
2021/04/08 03:05:58;;;;;;;9.68;5.00;;;;;;;;;;5025961;28;20039;-84
2021/04/08 03:08:47;;;;;;;9.80;4.85;;;;;;;;;;5032557;28;20025;-83
2021/04/08 03:11:33;;;;;;;7.82;4.30;;;;;;;;;;5026008;28;20542;-83
2021/04/08 03:14:20;;;;;;;11.10;4.80;;;;;;;;;;5022859;28;20042;-83
2021/04/08 03:17:05;;;;;;;10.50;5.03;;;;;;;;;;5017967;28;20025;-84
2021/04/08 03:19:52;;;;;;;9.38;4.63;;;;;;;;;;5023790;28;20068;-84
2021/04/08 03:22:38;;;;;;;10.45;5.18;;;;;;;;;;5021080;28;20043;-84
2021/04/08 03:25:23;;;;;;;11.05;4.85;;;;;;;;;;5030023;28;20026;-84
2021/04/08 03:28:12;;;;;;;7.13;4.75;;;;;;;;;;5038799;28;20053;-84
2021/04/08 03:30:58;;;;;;;7.05;4.50;;;;;;;;;;5015534;28;20068;-85
2021/04/08 03:33:43;;;;;;;7.75;5.00;;;;;;;;;;5024855;28;20546;-83
2021/04/08 03:36:29;;;;;;;11.45;5.80;;;;;;;;;;5023201;28;20040;-84
2021/04/08 03:39:15;;;;;;;7.03;4.63;;;;;;;;;;5023329;28;20032;-85
2021/04/08 03:42:00;;;;;;;10.57;4.30;;;;;;;;;;5023823;28;20087;-84
2021/04/08 03:44:45;;;;;;;12.07;5.43;;;;;;;;;;5020774;28;20181;-84
2021/04/08 03:47:31;;;;;;;7.65;4.72;;;;;;;;;;5025706;28;20410;-84
2021/04/08 03:50:17;;;;;;;9.77;4.70;;;;;;;;;;5022083;28;20025;-84
2021/04/08 03:53:03;;;;;;;9.43;5.53;;;;;;;;;;5007255;28;20754;-83
2021/04/08 03:55:48;;;;;;;11.95;5.00;;;;;;;;;;5026211;28;20021;-83
2021/04/08 03:58:34;;;;;;;8.30;4.97;;;;;;;;;;5024097;28;20032;-84
2021/04/08 04:01:20;;;;;;;9.95;4.35;;;;;;;;;;5026139;28;20033;-84
2021/04/08 04:04:07;;;;;;;7.20;4.47;;;;;;;;;;5025281;28;20376;-84
2021/04/08 04:06:53;;;;;;;6.88;4.93;;;;;;;;;;5022682;28;20360;-84
2021/04/08 04:09:39;;;;;;;11.25;5.18;;;;;;;;;;5025780;28;20036;-84
2021/04/08 04:12:25;;;;;;;9.57;4.60;;;;;;;;;;5023539;28;20036;-84
2021/04/08 04:15:10;;;;;;;6.35;3.90;;;;;;;;;;5027383;28;20046;-84
2021/04/08 04:17:55;;;;;;;7.88;4.43;;;;;;;;;;5025075;28;20378;-83
2021/04/08 04:20:40;;;;;;;11.30;4.80;;;;;;;;;;5014955;28;20048;-83
2021/04/08 04:23:26;;;;;;;8.85;4.22;;;;;;;;;;5025509;28;20124;-83
2021/04/08 04:26:12;;;;;;;9.20;4.75;;;;;;;;;;5026126;28;20100;-83
2021/04/08 04:28:58;;;;;;;8.15;4.82;;;;;;;;;;5027686;28;20100;-83
2021/04/08 04:31:44;;;;;;;9.98;4.95;;;;;;;;;;5026594;28;20393;-82
2021/04/08 04:34:29;;;;;;;13.50;5.85;;;;;;;;;;5030483;28;20049;-84
2021/04/08 04:37:14;;;;;;;13.57;5.22;;;;;;;;;;5025787;28;20460;-85
2021/04/08 04:39:59;;;;;;;9.05;4.65;;;;;;;;;;5037492;28;20033;-84
2021/04/08 04:42:45;;;;;;;11.35;4.80;;;;;;;;;;5024466;28;20025;-84
2021/04/08 04:45:30;;;;;;;11.95;4.72;;;;;;;;;;5027043;28;20053;-85
2021/04/08 04:48:15;;;;;;;9.05;4.53;;;;;;;;;;5020181;28;20028;-84
2021/04/08 04:51:00;;;;;;;9.48;4.70;;;;;;;;;;5023430;28;20128;-84
2021/04/08 04:53:46;;;;;;;13.27;4.60;;;;;;;;;;5026077;28;20056;-84
2021/04/08 04:56:31;;;;;;;9.48;4.60;;;;;;;;;;5022717;28;20041;-84
2021/04/08 04:59:16;;;;;;;7.88;4.72;;;;;;;;;;5026269;28;20049;-84
2021/04/08 05:02:02;;;;;;;7.47;4.30;;;;;;;;;;5028110;28;20099;-84
2021/04/08 05:04:47;;;;;;;10.35;5.18;;;;;;;;;;5024187;28;20430;-84
2021/04/08 05:07:32;;;;;;;6.25;4.07;;;;;;;;;;5023866;28;20438;-84
2021/04/08 05:10:17;;;;;;;9.00;4.15;;;;;;;;;;5027914;28;20025;-84
2021/04/08 05:13:02;;;;;;;12.50;4.15;;;;;;;;;;5023407;28;20017;-83
2021/04/08 05:15:48;;;;;;;8.57;4.40;;;;;;;;;;5029151;28;20045;-84
2021/04/08 05:18:33;;;;;;;10.38;4.18;;;;;;;;;;5025322;28;20459;-84
2021/04/08 05:21:18;;;;;;;9.85;3.65;;;;;;;;;;5028250;28;20091;-82
2021/04/08 05:24:03;;;;;;;7.13;4.40;;;;;;;;;;5025433;28;20033;-83
2021/04/08 05:26:49;;;;;;;9.85;5.18;;;;;;;;;;5028568;28;20033;-82
2021/04/08 05:29:34;;;;;;;9.82;4.95;;;;;;;;;;5022362;28;20021;-84
2021/04/08 05:32:23;;;;;;;8.35;4.40;;;;;;;;;;5027254;28;20027;-85
2021/04/08 05:35:08;;;;;;;9.73;4.50;;;;;;;;;;5022583;28;20099;-86
2021/04/08 05:37:54;;;;;;;10.02;4.95;;;;;;;;;;5026714;28;20095;-85
2021/04/08 05:40:39;;;;;;;8.30;4.50;;;;;;;;;;5020919;28;20116;-84
2021/04/08 05:43:24;;;;;;;9.05;4.30;;;;;;;;;;5030216;28;20464;-85
2021/04/08 05:46:10;;;;;;;9.98;4.80;;;;;;;;;;5037696;28;20076;-83
2021/04/08 05:48:55;;;;;;;8.43;4.03;;;;;;;;;;5024896;28;20025;-83
2021/04/08 05:51:40;;;;;;;7.90;3.83;;;;;;;;;;5022262;28;20033;-85
2021/04/08 05:54:25;;;;;;;8.90;4.10;;;;;;;;;;5027381;28;20040;-85
2021/04/08 05:57:11;;;;;;;11.43;4.60;;;;;;;;;;5011920;28;20109;-86
2021/04/08 05:59:56;;;;;;;9.90;4.82;;;;;;;;;;5020876;28;20144;-84
2021/04/08 06:02:41;;;;;;;11.35;4.45;;;;;;;;;;5023160;28;20025;-85
2021/04/08 06:05:26;;;;;;;11.20;5.20;;;;;;;;;;5018237;28;21238;-85
2021/04/08 06:08:12;;;;;;;9.15;4.88;;;;;;;;;;5024014;28;20053;-86
2021/04/08 06:10:57;;;;;;;8.25;4.40;;;;;;;;;;5025050;28;20067;-86
2021/04/08 06:13:42;;;;;;;8.57;4.15;;;;;;;;;;5026416;28;20029;-86
2021/04/08 06:16:27;;;;;;;9.68;3.95;;;;;;;;;;5017489;28;20550;-85
2021/04/08 06:19:13;;;;;;;8.32;4.50;;;;;;;;;;5024769;28;20451;-87
2021/04/08 06:21:59;;;;;;;10.80;4.63;;;;;;;;;;5021618;28;20134;-85
2021/04/08 06:24:44;;;;;;;7.78;3.58;;;;;;;;;;5026216;28;20022;-86
2021/04/08 06:27:33;;;;;;;12.85;4.18;;;;;;;;;;5022744;28;20044;-87
2021/04/08 06:30:18;;;;;;;9.80;3.87;;;;;;;;;;5024521;28;20021;-83
2021/04/08 06:33:04;;;;;;;8.63;3.72;;;;;;;;;;5021983;28;20041;-82
2021/04/08 06:35:50;;;;;;;8.48;3.53;;;;;;;;;;5022397;28;20109;-83
2021/04/08 06:38:35;;;;;;;7.03;3.63;;;;;;;;;;5016119;28;20035;-82
2021/04/08 06:41:20;;;;;;;7.80;3.80;;;;;;;;;;5024904;28;20080;-83
2021/04/08 06:44:07;;;;;;;11.60;5.72;;;;;;;;;;5023955;28;20025;-84
2021/04/08 06:46:54;;;;;;;8.27;4.43;;;;;;;;;;5022433;28;20088;-86
2021/04/08 06:49:49;;;;;;;11.60;4.30;;;;;;;;;;5025620;28;20458;-82
2021/04/08 06:52:36;;;;;;;7.45;4.75;;;;;;;;;;5028966;28;20032;-84
2021/04/08 06:55:21;;;;;;;8.93;5.03;;;;;;;;;;5024778;28;20029;-82
2021/04/08 06:58:07;;;;;;;12.00;4.90;;;;;;;;;;5006825;28;20029;-82
2021/04/08 07:00:53;;;;;;;7.35;4.85;;;;;;;;;;5027204;28;20079;-84
2021/04/08 07:03:38;;;;;;;12.52;5.22;;;;;;;;;;5022990;28;20022;-86
2021/04/08 07:06:24;;;;;;;12.50;5.05;;;;;;;;;;5031524;28;20116;-83
2021/04/08 07:09:10;;;;;;;9.52;5.15;;;;;;;;;;5020963;28;20439;-82
2021/04/08 07:11:56;;;;;;;8.98;4.90;;;;;;;;;;5025897;28;20029;-83
2021/04/08 07:14:42;;;;;;;20.70;6.20;;;;;;;;;;5022326;28;20045;-83
2021/04/08 07:17:27;;;;;;;19.75;5.65;;;;;;;;;;5025870;28;20029;-83
2021/04/08 07:20:12;;;;;;;11.73;4.95;;;;;;;;;;5020633;28;20633;-85
2021/04/08 07:23:10;;;;;;;8.57;4.55;;;;;;;;;;5024542;28;20105;-84
2021/04/08 07:26:00;;;;;;;14.88;6.55;;;;;;;;;;5020437;28;20086;-82
2021/04/08 07:28:45;;;;;;;11.80;5.80;;;;;;;;;;5022835;28;20488;-87
2021/04/08 07:31:32;;;;;;;11.27;5.30;;;;;;;;;;5025754;28;20029;-83
2021/04/08 07:34:31;;;;;;;10.40;4.95;;;;;;;;;;5020789;28;20569;-83
2021/04/08 07:37:21;;;;;;;14.53;9.17;;;;;;;;;;5021092;28;20111;-84
2021/04/08 07:40:20;;;;;;;12.30;5.43;;;;;;;;;;5022250;28;20346;-85
2021/04/08 07:43:14;;;;;;;13.98;6.82;;;;;;;;;;5016581;28;20025;-85
2021/04/08 07:46:19;;;;;;;10.82;5.95;;;;;;;;;;5020422;28;20052;-87
2021/04/08 07:49:24;;;;;;;12.38;5.65;;;;;;;;;;5020926;28;20119;-83
2021/04/08 07:52:16;;;;;;;17.85;6.20;;;;;;;;;;5024601;28;20030;-82
2021/04/08 07:55:04;;;;;;;7.82;4.65;;;;;;;;;;5018181;28;20105;-86
2021/04/08 07:57:58;;;;;;;9.65;5.65;;;;;;;;;;5024914;28;20026;-83
2021/04/08 08:00:44;;;;;;;15.63;5.53;;;;;;;;;;5022151;28;20026;-84
2021/04/08 08:03:30;;;;;;;10.65;5.22;;;;;;;;;;5026735;28;20483;-85
2021/04/08 08:06:34;;;;;;;11.60;4.35;;;;;;;;;;5020821;28;20035;-84
2021/04/08 08:09:29;;;;;;;8.55;4.80;;;;;;;;;;5023252;28;20108;-84
2021/04/08 08:12:15;;;;;;;12.50;4.68;;;;;;;;;;5006483;28;20553;-83
2021/04/08 08:15:18;;;;;;;15.75;4.85;;;;;;;;;;5015929;28;20448;-84
2021/04/08 08:18:03;;;;;;;9.45;5.25;;;;;;;;;;5023297;28;20075;-85
2021/04/08 08:20:48;;;;;;;8.90;4.40;;;;;;;;;;5018841;28;20029;-83
2021/04/08 08:23:37;;;;;;;9.65;4.18;;;;;;;;;;5023539;28;20044;-82
2021/04/08 08:26:26;;;;;;;9.20;4.50;;;;;;;;;;5019128;28;20065;-83
2021/04/08 08:29:12;;;;;;;9.80;4.65;;;;;;;;;;5024736;28;20404;-81
2021/04/08 08:32:02;;;;;;;9.35;4.30;;;;;;;;;;5021282;28;20375;-80
2021/04/08 08:34:47;;;;;;;6.90;3.80;;;;;;;;;;5021765;28;20021;-81
2021/04/08 08:37:33;;;;;;;6.85;3.53;;;;;;;;;;5019413;28;20038;-78
2021/04/08 08:40:18;;;;;;;9.02;3.95;;;;;;;;;;5022267;28;20033;-81
2021/04/08 08:43:04;;;;;;;8.82;4.35;;;;;;;;;;5022639;28;20048;-81
2021/04/08 08:45:50;;;;;;;7.60;4.57;;;;;;;;;;5028280;28;20083;-80
2021/04/08 08:48:35;;;;;;;7.57;4.03;;;;;;;;;;5026079;28;20064;-79
2021/04/08 08:51:22;;;;;;;9.10;4.18;;;;;;;;;;5027857;28;20021;-80
2021/04/08 08:54:08;;;;;;;9.70;4.15;;;;;;;;;;5027424;28;20494;-80
2021/04/08 08:56:53;;;;;;;8.15;3.92;;;;;;;;;;5021905;28;20041;-81
2021/04/08 08:59:39;;;;;;;9.32;4.30;;;;;;;;;;5027294;28;20365;-80
2021/04/08 09:02:24;;;;;;;11.38;4.40;;;;;;;;;;5025167;28;20096;-80
2021/04/08 09:05:19;;;;;;;6.25;3.90;;;;;;;;;;5028094;28;20025;-80
2021/04/08 09:08:10;;;;;;;8.15;4.70;;;;;;;;;;5023849;28;20133;-80
2021/04/08 09:10:55;;;;;;;7.22;4.00;;;;;;;;;;5024354;28;20486;-80
2021/04/08 09:13:43;;;;;;;6.28;3.58;;;;;;;;;;5023120;28;20175;-81
2021/04/08 09:16:31;;;;;;;8.07;3.75;;;;;;;;;;5028325;28;20264;-79
2021/04/08 09:19:28;;;;;;;9.00;3.97;;;;;;;;;;5025901;28;20420;-80
2021/04/08 09:22:13;;;;;;;9.90;3.35;;;;;;;;;;5025828;28;20033;-80
2021/04/08 09:24:58;;;;;;;5.82;3.50;;;;;;;;;;5024211;28;20182;-82
2021/04/08 09:27:50;;;;;;;7.70;3.55;;;;;;;;;;5024900;28;20018;-80
2021/04/08 09:30:55;;;;;;;45.58;29.35;;;;;;;;;;5025153;28;20025;-82
2021/04/08 09:33:43;;;;;;;11.38;4.93;;;;;;;;;;5022616;28;20056;-81
2021/04/08 09:36:32;;;;;;;8.35;3.40;;;;;;;;;;5023232;28;20525;-80
2021/04/08 09:39:20;;;;;;;8.40;3.95;;;;;;;;;;5022049;28;20052;-81
2021/04/08 09:42:06;;;;;;;5.78;3.17;;;;;;;;;;5035435;28;20084;-81
2021/04/08 09:44:52;;;;;;;9.27;3.67;;;;;;;;;;5019632;28;20640;-82
2021/04/08 09:47:37;;;;;;;7.55;3.67;;;;;;;;;;5026701;28;20456;-81
2021/04/08 09:50:42;;;;;;;7.40;3.72;;;;;;;;;;5022407;28;20547;-81
2021/04/08 09:53:27;;;;;;;8.75;3.97;;;;;;;;;;5027220;28;20025;-80
2021/04/08 09:56:13;;;;;;;8.35;3.55;;;;;;;;;;5018609;28;20075;-81
2021/04/08 09:58:58;;;;;;;7.35;3.70;;;;;;;;;;5024886;28;20029;-80
2021/04/08 10:01:43;;;;;;;7.18;3.20;;;;;;;;;;5023828;28;20384;-81
2021/04/08 10:04:29;;;;;;;11.57;4.03;;;;;;;;;;5021186;28;20029;-81
2021/04/08 10:07:14;;;;;;;7.63;3.92;;;;;;;;;;5023013;28;20144;-81
2021/04/08 10:09:59;;;;;;;6.35;3.55;;;;;;;;;;5023383;28;20025;-81
2021/04/08 10:12:44;;;;;;;6.32;3.35;;;;;;;;;;5027924;28;20026;-82
2021/04/08 10:15:33;;;;;;;6.30;3.78;;;;;;;;;;5021360;28;20059;-82
2021/04/08 10:18:23;;;;;;;7.15;3.70;;;;;;;;;;5022234;28;20047;-82
2021/04/08 10:21:16;;;;;;;34.63;21.35;;;;;;;;;;5022748;28;20021;-81
2021/04/08 10:24:10;;;;;;;11.20;4.50;;;;;;;;;;5027692;28;20110;-81
2021/04/08 10:26:55;;;;;;;10.65;3.50;;;;;;;;;;5017896;28;20463;-81
2021/04/08 10:29:41;;;;;;;8.52;4.05;;;;;;;;;;5026002;28;20017;-82
2021/04/08 10:32:33;;;;;;;5.90;3.40;;;;;;;;;;5024048;28;20175;-82
2021/04/08 10:35:20;;;;;;;6.72;3.55;;;;;;;;;;5026586;28;20029;-82
2021/04/08 10:38:06;;;;;;;8.25;3.83;;;;;;;;;;5027449;28;20025;-82
2021/04/08 10:40:51;;;;;;;14.40;5.00;;;;;;;;;;5022479;28;20479;-80
2021/04/08 10:43:37;;;;;;;8.48;3.50;;;;;;;;;;5023494;28;20083;-80
2021/04/08 10:46:22;;;;;;;8.27;4.18;;;;;;;;;;5023425;28;20595;-80
2021/04/08 10:49:07;;;;;;;7.45;3.55;;;;;;;;;;5018252;28;20021;-81
2021/04/08 10:51:54;;;;;;;13.32;4.38;;;;;;;;;;5015918;28;20053;-80
2021/04/08 10:54:39;;;;;;;9.45;3.92;;;;;;;;;;5024963;28;20032;-80
2021/04/08 10:57:25;;;;;;;8.13;3.47;;;;;;;;;;5024256;28;20044;-81
2021/04/08 11:00:12;;;;;;;8.70;4.30;;;;;;;;;;5022806;28;20033;-80
2021/04/08 11:03:00;;;;;;;7.88;3.47;;;;;;;;;;5019669;28;20025;-81
2021/04/08 11:05:45;;;;;;;13.40;4.25;;;;;;;;;;5024624;28;20036;-82
2021/04/08 11:08:30;;;;;;;8.70;3.83;;;;;;;;;;5017859;28;20112;-79
2021/04/08 11:11:23;;;;;;;8.32;4.18;;;;;;;;;;5015078;28;20541;-80
2021/04/08 11:14:31;;;;;;;5.43;3.70;;;;;;;;;;5019449;28;20045;-81
2021/04/08 11:17:17;;;;;;;7.25;3.67;;;;;;;;;;5023531;28;20021;-80
2021/04/08 11:20:03;;;;;;;9.27;3.85;;;;;;;;;;5033490;28;20025;-80
2021/04/08 11:22:48;;;;;;;7.70;4.15;;;;;;;;;;5022099;28;20021;-81
2021/04/08 11:25:33;;;;;;;7.38;3.45;;;;;;;;;;5024855;28;20451;-82
2021/04/08 11:28:21;;;;;;;6.57;3.83;;;;;;;;;;5019396;28;20104;-84
2021/04/08 11:31:20;;;;;;;8.18;3.65;;;;;;;;;;5022483;28;20064;-83
2021/04/08 11:34:05;;;;;;;6.43;3.88;;;;;;;;;;5020562;28;20029;-81
2021/04/08 11:36:54;;;;;;;6.65;3.65;;;;;;;;;;5024784;28;20096;-81
2021/04/08 11:39:39;;;;;;;5.28;3.58;;;;;;;;;;5021324;28;20029;-82
2021/04/08 11:42:25;;;;;;;8.98;4.00;;;;;;;;;;5022287;28;20026;-81
2021/04/08 11:45:29;;;;;;;8.02;3.63;;;;;;;;;;5021048;28;20484;-81
2021/04/08 11:48:15;;;;;;;10.85;3.40;;;;;;;;;;5035104;28;20048;-80
2021/04/08 11:51:05;;;;;;;9.45;3.58;;;;;;;;;;5024591;28;20021;-81
2021/04/08 11:53:51;;;;;;;7.63;3.58;;;;;;;;;;5005224;28;20032;-80
2021/04/08 11:56:38;;;;;;;7.82;3.42;;;;;;;;;;5024941;28;20057;-81
2021/04/08 11:59:23;;;;;;;7.53;3.25;;;;;;;;;;5022430;28;20051;-81
2021/04/08 12:02:08;;;;;;;8.23;3.85;;;;;;;;;;5022193;28;20040;-82
2021/04/08 12:04:53;;;;;;;8.40;3.88;;;;;;;;;;5017138;28;20029;-82
2021/04/08 12:07:43;;;;;;;7.20;3.58;;;;;;;;;;5023354;28;20025;-82
2021/04/08 12:10:29;;;;;;;8.75;3.10;;;;;;;;;;5020824;28;20033;-81
2021/04/08 12:13:21;;;;;;;8.93;3.95;;;;;;;;;;5014120;28;20026;-80
2021/04/08 12:16:19;;;;;;;5.72;2.90;;;;;;;;;;5033864;28;20053;-82
2021/04/08 12:19:05;;;;;;;9.85;3.70;;;;;;;;;;5028495;28;20033;-81
2021/04/08 12:21:57;;;;;;;9.10;3.25;;;;;;;;;;5012201;28;20033;-80
2021/04/08 12:25:02;;;;;;;5.70;3.05;;;;;;;;;;5023943;28;20017;-80
2021/04/08 12:27:48;;;;;;;6.75;3.20;;;;;;;;;;5028328;28;20036;-82
2021/04/08 12:30:33;;;;;;;7.00;3.20;;;;;;;;;;5027060;28;20494;-82
2021/04/08 12:33:18;;;;;;;8.63;3.08;;;;;;;;;;5029177;28;20491;-81
2021/04/08 12:36:06;;;;;;;6.97;3.05;;;;;;;;;;5021984;28;20502;-81
2021/04/08 12:38:51;;;;;;;5.28;3.15;;;;;;;;;;5027340;28;20102;-82
2021/04/08 12:41:37;;;;;;;7.20;3.50;;;;;;;;;;5023929;28;20033;-81
2021/04/08 12:44:22;;;;;;;9.18;3.47;;;;;;;;;;5028399;28;20202;-82
2021/04/08 12:47:08;;;;;;;9.57;5.40;;;;;;;;;;5024574;28;20018;-83
2021/04/08 12:49:53;;;;;;;9.00;4.07;;;;;;;;;;5039736;28;20039;-82
2021/04/08 12:52:38;;;;;;;10.48;3.47;;;;;;;;;;5020178;28;20119;-82
2021/04/08 12:55:26;;;;;;;6.80;3.10;;;;;;;;;;5028254;28;20025;-83
2021/04/08 12:58:11;;;;;;;6.65;3.72;;;;;;;;;;5031473;28;20028;-82
2021/04/08 13:00:56;;;;;;;7.95;2.95;;;;;;;;;;5025326;28;20112;-82
2021/04/08 13:03:42;;;;;;;6.25;2.92;;;;;;;;;;5027333;28;20053;-82
2021/04/08 13:06:27;;;;;;;5.65;3.03;;;;;;;;;;5023705;28;20021;-81
2021/04/08 13:09:12;;;;;;;5.55;2.85;;;;;;;;;;5025012;28;20037;-82
2021/04/08 13:11:58;;;;;;;6.20;2.97;;;;;;;;;;5025302;28;20113;-81
2021/04/08 13:14:43;;;;;;;8.18;2.97;;;;;;;;;;5027359;28;20156;-81
2021/04/08 13:17:29;;;;;;;8.65;3.55;;;;;;;;;;5025519;28;20112;-82
2021/04/08 13:20:14;;;;;;;7.65;3.38;;;;;;;;;;5028051;28;20021;-83
2021/04/08 13:23:00;;;;;;;7.50;2.40;;;;;;;;;;5024830;28;20426;-83
2021/04/08 13:25:46;;;;;;;26.35;15.98;;;;;;;;;;5020525;28;20545;-80
2021/04/08 13:28:31;;;;;;;8.45;4.00;;;;;;;;;;5021271;28;20029;-80
2021/04/08 13:31:16;;;;;;;5.57;3.25;;;;;;;;;;5028669;28;20033;-82
2021/04/08 13:34:02;;;;;;;5.72;2.90;;;;;;;;;;5018589;28;20203;-82
2021/04/08 13:36:47;;;;;;;6.32;2.95;;;;;;;;;;5021124;28;20033;-81
2021/04/08 13:39:33;;;;;;;7.35;2.85;;;;;;;;;;5024042;28;20041;-80
2021/04/08 13:42:18;;;;;;;6.28;2.70;;;;;;;;;;5025357;28;20096;-83
2021/04/08 13:45:04;;;;;;;5.65;2.85;;;;;;;;;;5017418;28;20022;-81
2021/04/08 13:47:50;;;;;;;5.22;2.60;;;;;;;;;;5028359;28;20079;-81
2021/04/08 13:50:35;;;;;;;9.35;3.55;;;;;;;;;;5023588;28;20021;-80
2021/04/08 13:53:20;;;;;;;16.92;3.60;;;;;;;;;;5025977;28;20044;-80
2021/04/08 13:56:06;;;;;;;6.18;3.08;;;;;;;;;;5017303;28;20022;-81
2021/04/08 13:58:51;;;;;;;6.53;2.70;;;;;;;;;;5020377;28;20018;-81
2021/04/08 14:01:36;;;;;;;8.48;3.10;;;;;;;;;;5024732;28;20029;-80
2021/04/08 14:04:22;;;;;;;8.10;2.85;;;;;;;;;;5015773;28;20034;-80
2021/04/08 14:07:09;;;;;;;6.05;3.08;;;;;;;;;;5018102;28;20014;-81
2021/04/08 14:09:54;;;;;;;7.47;3.22;;;;;;;;;;5023738;28;20091;-81
2021/04/08 14:12:40;;;;;;;7.38;3.20;;;;;;;;;;5023922;28;20052;-82
2021/04/08 14:15:25;;;;;;;6.57;3.40;;;;;;;;;;5019628;28;20049;-81
2021/04/08 14:18:11;;;;;;;6.95;2.92;;;;;;;;;;5026568;28;20018;-80
2021/04/08 14:20:56;;;;;;;13.48;5.50;;;;;;;;;;5022003;28;20128;-82
2021/04/08 14:23:41;;;;;;;5.22;3.47;;;;;;;;;;5023537;28;20515;-81
2021/04/08 14:26:26;;;;;;;7.00;3.30;;;;;;;;;;5019909;28;20476;-81
2021/04/08 14:29:12;;;;;;;7.40;3.35;;;;;;;;;;5022145;28;20435;-81
2021/04/08 14:31:57;;;;;;;7.15;3.45;;;;;;;;;;5022477;28;20391;-80
2021/04/08 14:34:42;;;;;;;8.20;3.78;;;;;;;;;;5022218;28;20029;-81
2021/04/08 14:37:28;;;;;;;5.82;3.30;;;;;;;;;;5022111;28;20021;-81
2021/04/08 14:40:13;;;;;;;8.93;3.95;;;;;;;;;;5021564;28;20341;-81
2021/04/08 14:42:58;;;;;;;6.45;3.47;;;;;;;;;;5023169;28;20099;-83
2021/04/08 14:45:44;;;;;;;7.05;3.50;;;;;;;;;;5023274;28;20733;-83
2021/04/08 14:48:29;;;;;;;5.78;2.67;;;;;;;;;;5024052;28;20053;-80
2021/04/08 14:51:14;;;;;;;7.72;3.13;;;;;;;;;;5015347;28;20052;-79
2021/04/08 14:54:00;;;;;;;7.25;3.92;;;;;;;;;;5020356;28;20022;-79
2021/04/08 14:56:45;;;;;;;9.52;3.33;;;;;;;;;;5020950;28;20032;-81
2021/04/08 14:59:30;;;;;;;7.32;3.42;;;;;;;;;;5025307;28;20048;-81
2021/04/08 15:02:15;;;;;;;7.85;3.33;;;;;;;;;;5022637;28;20484;-81
2021/04/08 15:05:01;;;;;;;6.82;3.85;;;;;;;;;;5025619;28;20027;-81
2021/04/08 15:07:46;;;;;;;7.05;3.63;;;;;;;;;;5021906;28;20063;-81
2021/04/08 15:10:31;;;;;;;6.50;3.40;;;;;;;;;;5026191;28;20025;-81
2021/04/08 15:13:17;;;;;;;5.55;3.00;;;;;;;;;;5023628;28;20132;-80
2021/04/08 15:16:02;;;;;;;10.52;3.70;;;;;;;;;;5022115;28;20547;-82
2021/04/08 15:18:48;;;;;;;11.45;3.75;;;;;;;;;;5019709;28;20037;-82
2021/04/08 15:21:33;;;;;;;6.95;3.38;;;;;;;;;;5020764;28;20148;-82
2021/04/08 15:24:19;;;;;;;17.10;10.52;;;;;;;;;;5021577;28;20059;-82
2021/04/08 15:27:04;;;;;;;7.85;3.85;;;;;;;;;;5020350;28;20048;-81
2021/04/08 15:29:49;;;;;;;6.07;3.42;;;;;;;;;;5024052;28;20088;-82
2021/04/08 15:32:35;;;;;;;7.53;3.53;;;;;;;;;;5022847;28;20033;-83
2021/04/08 15:35:21;;;;;;;10.43;4.13;;;;;;;;;;5024635;28;20105;-84
2021/04/08 15:38:07;;;;;;;7.35;3.33;;;;;;;;;;5016127;28;20041;-82
2021/04/08 15:40:52;;;;;;;7.15;3.90;;;;;;;;;;5025510;28;20030;-81
2021/04/08 15:43:37;;;;;;;7.75;4.10;;;;;;;;;;5022940;28;20029;-82
2021/04/08 15:46:22;;;;;;;10.02;4.53;;;;;;;;;;5025874;28;20540;-81
2021/04/08 15:49:08;;;;;;;7.53;3.42;;;;;;;;;;5022565;28;20021;-82
2021/04/08 15:51:53;;;;;;;7.95;4.00;;;;;;;;;;5023966;28;20036;-82
2021/04/08 15:54:38;;;;;;;5.25;3.17;;;;;;;;;;5022307;28;20109;-82
2021/04/08 15:57:24;;;;;;;6.35;3.60;;;;;;;;;;5025022;28;20139;-82
2021/04/08 16:00:10;;;;;;;10.50;3.58;;;;;;;;;;5021047;28;20059;-82
2021/04/08 16:02:56;;;;;;;7.38;3.65;;;;;;;;;;5023454;28;20029;-82
2021/04/08 16:05:41;;;;;;;9.45;4.40;;;;;;;;;;5020649;28;20068;-82
2021/04/08 16:08:27;;;;;;;19.50;12.32;;;;;;;;;;5024913;28;20029;-82
2021/04/08 16:11:12;;;;;;;9.75;4.90;;;;;;;;;;5022876;28;20648;-81
2021/04/08 16:13:57;;;;;;;9.40;3.80;;;;;;;;;;5024344;28;20052;-81
2021/04/08 16:16:42;;;;;;;7.47;3.75;;;;;;;;;;5024113;28;20053;-82
2021/04/08 16:19:28;;;;;;;5.90;3.50;;;;;;;;;;5020127;28;20172;-81
2021/04/08 16:22:13;;;;;;;6.70;3.70;;;;;;;;;;5025017;28;20025;-82
2021/04/08 16:24:59;;;;;;;7.68;4.10;;;;;;;;;;5005441;28;20471;-83
2021/04/08 16:27:44;;;;;;;9.88;4.22;;;;;;;;;;5017642;28;21293;-83
2021/04/08 16:30:29;;;;;;;6.13;3.85;;;;;;;;;;5022019;28;20013;-84
2021/04/08 16:33:15;;;;;;;8.38;3.83;;;;;;;;;;5022717;28;20102;-85
2021/04/08 16:36:00;;;;;;;6.82;4.13;;;;;;;;;;5021985;28;20025;-85